createdAt,value
2017-12-16T00:02:13.795Z,83.00
2017-12-16T00:04:42.679Z,82.20
2017-12-16T00:07:11.595Z,81.40
2017-12-16T00:09:39.735Z,81.40
2017-12-16T00:12:08.671Z,81.30
2017-12-16T00:14:36.808Z,81.20
2017-12-16T00:17:05.878Z,81.30
2017-12-16T00:19:34.464Z,81.40
2017-12-16T00:22:03.047Z,81.70
2017-12-16T00:24:31.171Z,82.10
2017-12-16T00:26:59.319Z,82.30
2017-12-16T00:29:28.223Z,82.70
2017-12-16T00:31:57.138Z,82.30
2017-12-16T00:34:25.294Z,82.30
2017-12-16T00:36:53.467Z,81.60
2017-12-16T00:39:21.598Z,81.50
2017-12-16T00:41:49.754Z,81.60
2017-12-16T00:44:17.908Z,81.90
2017-12-16T00:46:46.070Z,81.80
2017-12-16T00:49:14.207Z,82.00
2017-12-16T00:51:42.380Z,82.70
2017-12-16T00:54:10.528Z,82.50
2017-12-16T00:56:38.717Z,82.30
2017-12-16T00:59:06.863Z,82.50
2017-12-16T01:01:34.983Z,82.90
2017-12-16T01:04:03.141Z,82.80
2017-12-16T01:06:31.273Z,83.00
2017-12-16T01:08:59.861Z,83.10
2017-12-16T01:11:27.995Z,83.00
2017-12-16T01:13:56.942Z,82.60
2017-12-16T01:16:25.091Z,82.60
2017-12-16T01:18:53.248Z,83.00
2017-12-16T01:21:22.135Z,82.50
2017-12-16T01:23:51.062Z,82.40
2017-12-16T01:26:19.192Z,82.50
2017-12-16T01:28:48.110Z,83.00
2017-12-16T01:31:16.233Z,83.00
2017-12-16T01:33:56.190Z,82.60
2017-12-16T01:36:37.735Z,81.60
2017-12-16T01:39:05.874Z,81.70
2017-12-16T01:41:34.778Z,82.00
2017-12-16T01:44:03.787Z,82.00
2017-12-16T01:46:31.910Z,82.10
2017-12-16T01:49:00.065Z,82.70
2017-12-16T01:51:28.202Z,82.60
2017-12-16T01:53:56.377Z,82.40
2017-12-16T01:56:24.490Z,82.70
2017-12-16T01:58:53.153Z,83.60
2017-12-16T02:01:21.294Z,83.20
2017-12-16T02:03:49.426Z,83.10
2017-12-16T02:06:17.590Z,83.20
2017-12-16T02:08:45.722Z,83.30
2017-12-16T02:11:13.872Z,82.80
2017-12-16T02:13:42.758Z,83.00
2017-12-16T02:16:10.910Z,83.00
2017-12-16T02:18:39.029Z,82.60
2017-12-16T02:21:07.177Z,82.50
2017-12-16T02:23:35.344Z,82.90
2017-12-16T02:26:03.500Z,83.90
2017-12-16T02:28:31.626Z,84.30
2017-12-16T02:30:59.802Z,84.00
2017-12-16T02:33:27.926Z,83.90
2017-12-16T02:35:57.168Z,83.90
2017-12-16T02:38:25.290Z,84.00
2017-12-16T02:40:53.446Z,84.20
2017-12-16T02:43:21.590Z,84.40
2017-12-16T02:45:49.747Z,84.00
2017-12-16T02:48:17.902Z,84.10
2017-12-16T02:50:46.543Z,84.00
2017-12-16T02:53:14.684Z,84.00
2017-12-16T02:55:42.856Z,83.30
2017-12-16T02:58:11.833Z,83.70
2017-12-16T03:00:39.975Z,83.60
2017-12-16T03:03:08.099Z,83.70
2017-12-16T03:05:37.026Z,83.60
2017-12-16T03:08:05.314Z,83.60
2017-12-16T03:10:33.486Z,83.60
2017-12-16T03:13:01.606Z,82.90
2017-12-16T03:15:29.778Z,82.50
2017-12-16T03:17:58.665Z,82.90
2017-12-16T03:20:27.586Z,82.90
2017-12-16T03:22:55.721Z,82.90
2017-12-16T03:25:23.850Z,82.60
2017-12-16T03:27:52.010Z,82.60
2017-12-16T03:30:20.154Z,82.50
2017-12-16T03:32:49.062Z,82.90
2017-12-16T03:35:17.204Z,82.90
2017-12-16T03:37:45.358Z,83.40
2017-12-16T03:40:13.496Z,83.30
2017-12-16T03:42:41.640Z,83.60
2017-12-16T03:45:10.538Z,82.80
2017-12-16T03:47:39.456Z,83.30
2017-12-16T03:50:07.601Z,83.30
2017-12-16T03:52:35.778Z,82.90
2017-12-16T03:55:04.521Z,82.80
2017-12-16T03:57:32.687Z,83.10
2017-12-16T04:00:00.836Z,83.80
2017-12-16T04:02:29.026Z,82.90
2017-12-16T04:04:57.171Z,83.20
2017-12-16T04:07:25.317Z,83.20
2017-12-16T04:09:53.441Z,83.40
2017-12-16T04:12:22.845Z,83.70
2017-12-16T04:14:50.986Z,83.70
2017-12-16T04:17:19.907Z,84.00
2017-12-16T04:19:48.041Z,84.00
2017-12-16T04:22:16.958Z,83.90
2017-12-16T04:24:45.103Z,83.90
2017-12-16T04:27:14.027Z,83.80
2017-12-16T04:29:43.500Z,84.20
2017-12-16T04:32:12.422Z,84.40
2017-12-16T04:34:40.554Z,84.40
2017-12-16T04:37:08.711Z,84.20
2017-12-16T04:39:36.859Z,84.20
2017-12-16T04:42:05.061Z,83.80
2017-12-16T04:44:33.186Z,84.50
2017-12-16T04:47:01.698Z,84.80
2017-12-16T04:49:30.004Z,85.20
2017-12-16T04:51:58.172Z,85.00
2017-12-16T04:54:26.325Z,85.90
2017-12-16T04:56:54.450Z,86.50
2017-12-16T04:59:23.386Z,86.30
2017-12-16T05:01:51.514Z,86.30
2017-12-16T05:04:20.434Z,86.50
2017-12-16T05:06:48.594Z,86.60
2017-12-16T05:09:16.778Z,86.20
2017-12-16T05:11:44.914Z,85.70
2017-12-16T05:14:13.089Z,86.00
2017-12-16T05:16:42.010Z,85.60
2017-12-16T05:19:10.158Z,85.60
2017-12-16T05:21:39.050Z,85.60
2017-12-16T05:24:07.197Z,85.60
2017-12-16T05:26:35.348Z,85.40
2017-12-16T05:29:03.511Z,85.70
2017-12-16T05:31:31.625Z,85.30
2017-12-16T05:33:59.773Z,85.20
2017-12-16T05:36:29.174Z,85.40
2017-12-16T05:38:57.323Z,84.60
2017-12-16T05:41:25.478Z,83.40
2017-12-16T05:43:53.634Z,84.20
2017-12-16T05:46:21.786Z,84.30
2017-12-16T05:48:49.935Z,84.50
2017-12-16T05:51:18.061Z,83.80
2017-12-16T05:53:46.972Z,83.70
2017-12-16T05:56:15.098Z,83.70
2017-12-16T05:58:43.253Z,83.60
2017-12-16T06:01:11.374Z,83.30
2017-12-16T06:03:40.286Z,83.10
2017-12-16T06:06:08.430Z,83.10
2017-12-16T06:08:36.574Z,82.60
2017-12-16T06:11:04.715Z,82.60
2017-12-16T06:13:32.867Z,82.70
2017-12-16T06:16:01.788Z,82.40
2017-12-16T06:18:30.054Z,82.40
2017-12-16T06:20:58.191Z,82.00
2017-12-16T06:23:26.351Z,81.90
2017-12-16T06:25:54.494Z,82.30
2017-12-16T06:28:22.639Z,82.10
2017-12-16T06:30:50.790Z,82.00
2017-12-16T06:33:19.683Z,82.00
2017-12-16T06:35:48.521Z,81.90
2017-12-16T06:38:16.664Z,82.00
2017-12-16T06:40:44.813Z,82.00
2017-12-16T06:43:12.968Z,82.30
2017-12-16T06:45:41.125Z,82.60
2017-12-16T06:48:09.250Z,83.30
2017-12-16T06:50:37.415Z,83.60
2017-12-16T06:53:06.304Z,82.90
2017-12-16T06:55:35.230Z,82.60
2017-12-16T06:58:03.364Z,82.60
2017-12-16T07:00:31.539Z,82.80
2017-12-16T07:03:00.436Z,83.00
2017-12-16T07:05:29.367Z,83.10
2017-12-16T07:07:57.511Z,83.20
2017-12-16T07:10:26.442Z,83.10
2017-12-16T07:12:54.587Z,83.80
2017-12-16T07:15:22.759Z,82.70
2017-12-16T07:17:50.891Z,83.20
2017-12-16T07:20:19.046Z,82.90
2017-12-16T07:22:47.173Z,82.70
2017-12-16T07:25:15.351Z,82.50
2017-12-16T07:27:43.470Z,82.30
2017-12-16T07:30:11.618Z,82.50
2017-12-16T07:32:39.734Z,82.90
2017-12-16T07:35:07.916Z,83.10
2017-12-16T07:37:36.050Z,82.70
2017-12-16T07:40:04.207Z,82.00
2017-12-16T07:42:32.334Z,82.40
2017-12-16T07:45:00.502Z,81.80
2017-12-16T07:47:28.836Z,82.00
2017-12-16T07:49:56.990Z,82.00
2017-12-16T07:52:25.146Z,81.50
2017-12-16T07:54:53.654Z,81.50
2017-12-16T07:57:21.809Z,81.90
2017-12-16T07:59:50.697Z,81.50
2017-12-16T08:02:19.614Z,81.90
2017-12-16T08:04:47.746Z,81.90
2017-12-16T08:07:15.949Z,82.00
2017-12-16T08:09:44.052Z,81.90
2017-12-16T08:12:12.235Z,82.70
2017-12-16T08:14:40.632Z,83.00
2017-12-16T08:17:08.953Z,83.40
2017-12-16T08:19:37.087Z,83.20
2017-12-16T08:22:06.280Z,83.30
2017-12-16T08:24:34.688Z,82.60
2017-12-16T08:27:03.635Z,82.70
2017-12-16T08:29:31.806Z,82.70
2017-12-16T08:31:59.962Z,82.30
2017-12-16T08:34:28.117Z,82.60
2017-12-16T08:36:56.366Z,82.70
2017-12-16T08:39:24.562Z,82.10
2017-12-16T08:41:53.482Z,80.80
2017-12-16T08:44:21.758Z,80.80
2017-12-16T08:46:49.907Z,81.30
2017-12-16T08:49:18.036Z,81.50
2017-12-16T08:51:46.178Z,82.20
2017-12-16T08:54:14.311Z,82.20
2017-12-16T08:56:43.260Z,80.40
2017-12-16T08:59:11.401Z,80.40
2017-12-16T09:01:39.558Z,80.00
2017-12-16T09:04:08.444Z,80.20
2017-12-16T09:06:37.361Z,80.20
2017-12-16T09:09:05.485Z,80.20
2017-12-16T09:11:33.656Z,79.70
2017-12-16T09:14:01.783Z,79.90
2017-12-16T09:16:29.930Z,79.50
2017-12-16T09:18:58.827Z,78.40
2017-12-16T09:21:27.742Z,78.70
2017-12-16T09:23:55.919Z,78.70
2017-12-16T09:26:24.039Z,77.80
2017-12-16T09:28:52.193Z,76.80
2017-12-16T09:31:20.306Z,77.50
2017-12-16T09:33:49.230Z,77.90
2017-12-16T09:36:17.386Z,77.80
2017-12-16T09:38:45.543Z,78.00
2017-12-16T09:41:14.438Z,77.70
2017-12-16T09:43:44.579Z,77.30
2017-12-16T09:46:12.699Z,77.30
2017-12-16T09:48:40.870Z,77.00
2017-12-16T09:51:08.998Z,77.30
2017-12-16T09:53:37.155Z,76.90
2017-12-16T09:56:06.060Z,76.20
2017-12-16T09:58:34.237Z,76.20
2017-12-16T10:01:02.406Z,75.70
2017-12-16T10:03:30.549Z,75.50
2017-12-16T10:05:58.678Z,75.20
2017-12-16T10:08:26.832Z,75.20
2017-12-16T10:10:54.966Z,75.50
2017-12-16T10:13:23.472Z,75.90
2017-12-16T10:15:52.360Z,74.80
2017-12-16T10:18:21.277Z,74.60
2017-12-16T10:20:49.397Z,73.90
2017-12-16T10:23:17.557Z,75.30
2017-12-16T10:25:45.675Z,74.10
2017-12-16T10:28:14.590Z,74.20
2017-12-16T10:30:42.741Z,74.20
2017-12-16T10:33:10.903Z,75.00
2017-12-16T10:35:39.798Z,74.60
2017-12-16T10:38:09.249Z,74.80
2017-12-16T10:40:37.405Z,74.80
2017-12-16T10:43:05.600Z,75.30
2017-12-16T10:45:33.759Z,75.20
2017-12-16T10:48:01.928Z,76.40
2017-12-16T10:50:30.093Z,76.80
2017-12-16T10:52:58.235Z,77.10
2017-12-16T10:55:27.189Z,76.70
2017-12-16T10:57:55.316Z,76.80
2017-12-16T11:00:23.478Z,76.90
2017-12-16T11:02:52.364Z,76.90
2017-12-16T11:05:20.524Z,76.90
2017-12-16T11:07:48.671Z,77.20
2017-12-16T11:10:16.870Z,76.10
2017-12-16T11:12:45.039Z,77.50
2017-12-16T11:15:13.202Z,77.20
2017-12-16T11:17:41.338Z,77.40
2017-12-16T11:20:09.509Z,77.30
2017-12-16T11:22:37.632Z,76.20
2017-12-16T11:25:05.798Z,76.70
2017-12-16T11:27:33.954Z,75.90
2017-12-16T11:30:02.121Z,76.20
2017-12-16T11:32:30.237Z,76.00
2017-12-16T11:34:58.423Z,74.90
2017-12-16T11:37:26.576Z,74.70
2017-12-16T11:39:54.735Z,74.80
2017-12-16T11:42:22.917Z,74.90
2017-12-16T11:44:51.083Z,74.50
2017-12-16T11:47:21.014Z,73.30
2017-12-16T11:49:49.208Z,73.70
2017-12-16T11:52:17.797Z,74.00
2017-12-16T11:54:47.454Z,71.70
2017-12-16T11:57:15.595Z,72.30
2017-12-16T11:59:43.764Z,71.10
2017-12-16T12:02:12.674Z,71.30
2017-12-16T12:04:40.851Z,71.30
2017-12-16T12:07:09.008Z,72.10
2017-12-16T12:09:37.910Z,71.10
2017-12-16T12:12:06.027Z,71.20
2017-12-16T12:14:34.186Z,71.10
2017-12-16T12:17:02.664Z,71.90
2017-12-16T12:19:30.907Z,72.10
2017-12-16T12:21:59.046Z,71.90
2017-12-16T12:24:27.212Z,71.80
2017-12-16T12:26:55.358Z,71.80
2017-12-16T12:29:23.486Z,71.60
2017-12-16T12:31:52.402Z,71.90
2017-12-16T12:34:20.541Z,71.90
2017-12-16T12:36:49.487Z,71.90
2017-12-16T12:39:17.614Z,71.90
2017-12-16T12:41:46.553Z,74.20
2017-12-16T12:44:14.678Z,73.50
2017-12-16T12:46:43.635Z,72.60
2017-12-16T12:49:11.782Z,72.60
2017-12-16T12:51:39.930Z,72.50
2017-12-16T12:54:08.067Z,73.60
2017-12-16T12:56:36.218Z,74.90
2017-12-16T12:59:05.008Z,73.90
2017-12-16T13:01:33.270Z,73.80
2017-12-16T13:04:01.925Z,74.60
2017-12-16T13:06:31.770Z,74.60
2017-12-16T13:08:59.896Z,74.60
2017-12-16T13:11:28.064Z,73.90
2017-12-16T13:13:56.189Z,74.20
2017-12-16T13:16:24.455Z,74.70
2017-12-16T13:18:52.647Z,75.10
2017-12-16T13:21:20.889Z,75.70
2017-12-16T13:23:50.606Z,75.70
2017-12-16T13:26:18.769Z,75.70
2017-12-16T13:28:48.132Z,76.10
2017-12-16T13:31:16.422Z,76.10
2017-12-16T13:33:44.554Z,75.90
2017-12-16T13:36:13.265Z,76.30
2017-12-16T13:38:41.593Z,76.30
2017-12-16T13:41:10.095Z,76.10
2017-12-16T13:43:38.313Z,76.90
2017-12-16T13:46:06.506Z,77.40
2017-12-16T13:48:35.461Z,77.40
2017-12-16T13:51:04.514Z,78.30
2017-12-16T13:53:32.786Z,78.40
2017-12-16T13:56:01.030Z,78.10
2017-12-16T13:58:29.936Z,78.00
2017-12-16T14:00:59.185Z,78.70
2017-12-16T14:03:27.614Z,79.00
2017-12-16T14:05:56.531Z,79.70
2017-12-16T14:08:24.687Z,79.70
2017-12-16T14:10:53.585Z,78.90
2017-12-16T14:13:22.494Z,78.90
2017-12-16T14:15:50.638Z,78.90
2017-12-16T14:18:19.562Z,78.90
2017-12-16T14:20:47.702Z,78.90
2017-12-16T14:23:16.614Z,79.90
2017-12-16T14:25:44.769Z,79.90
2017-12-16T14:28:13.683Z,79.80
2017-12-16T14:30:43.474Z,79.70
2017-12-16T14:33:12.398Z,78.80
2017-12-16T14:35:40.545Z,78.70
2017-12-16T14:38:09.470Z,79.00
2017-12-16T14:40:38.738Z,79.20
2017-12-16T14:43:06.900Z,79.20
2017-12-16T14:45:35.811Z,78.20
2017-12-16T14:48:03.992Z,78.20
2017-12-16T14:50:32.110Z,77.90
2017-12-16T14:53:00.282Z,78.10
2017-12-16T14:55:28.407Z,78.70
2017-12-16T14:57:56.560Z,79.00
2017-12-16T15:00:25.449Z,78.80
2017-12-16T15:02:54.378Z,78.70
2017-12-16T15:05:22.497Z,78.70
2017-12-16T15:07:50.638Z,78.80
2017-12-16T15:10:18.821Z,78.50
2017-12-16T15:12:47.809Z,79.00
2017-12-16T15:15:15.955Z,78.90
2017-12-16T15:17:44.071Z,78.20
2017-12-16T15:20:12.249Z,78.70
2017-12-16T15:22:40.411Z,78.30
2017-12-16T15:25:10.525Z,78.10
2017-12-16T15:27:38.675Z,78.10
2017-12-16T15:30:06.828Z,78.50
2017-12-16T15:32:35.794Z,79.30
2017-12-16T15:35:04.806Z,78.80
2017-12-16T15:37:33.691Z,78.80
2017-12-16T15:40:01.904Z,78.80
2017-12-16T15:42:30.059Z,77.90
2017-12-16T15:44:58.219Z,78.30
2017-12-16T15:47:27.263Z,78.70
2017-12-16T15:49:55.409Z,78.70
2017-12-16T15:52:23.535Z,78.80
2017-12-16T15:54:52.487Z,78.10
2017-12-16T15:57:20.626Z,78.10
2017-12-16T15:59:49.533Z,78.80
2017-12-16T16:02:19.227Z,79.20
2017-12-16T16:04:48.311Z,79.20
2017-12-16T16:07:16.459Z,79.20
2017-12-16T16:09:44.635Z,79.30
2017-12-16T16:12:12.770Z,79.20
2017-12-16T16:14:41.069Z,79.90
2017-12-16T16:17:09.259Z,80.40
2017-12-16T16:19:38.216Z,81.10
2017-12-16T16:22:06.331Z,80.60
2017-12-16T16:24:34.485Z,80.90
2017-12-16T16:27:02.812Z,80.60
2017-12-16T16:29:31.749Z,81.10
2017-12-16T16:32:00.376Z,81.10
2017-12-16T16:34:28.673Z,81.10
2017-12-16T16:36:57.667Z,81.10
2017-12-16T16:39:26.575Z,80.90
2017-12-16T16:41:54.949Z,80.90
2017-12-16T16:44:23.262Z,80.90
2017-12-16T16:46:51.932Z,80.20
2017-12-16T16:49:20.754Z,80.40
2017-12-16T16:51:49.739Z,79.90
2017-12-16T16:54:17.862Z,79.90
2017-12-16T16:56:46.998Z,79.70
2017-12-16T16:59:15.424Z,79.60
2017-12-16T17:01:44.340Z,79.00
2017-12-16T17:04:12.630Z,79.00
2017-12-16T17:06:40.775Z,79.30
2017-12-16T17:09:09.660Z,80.10
2017-12-16T17:11:38.577Z,80.60
2017-12-16T17:14:07.497Z,80.60
2017-12-16T17:16:36.657Z,81.20
2017-12-16T17:19:04.778Z,80.90
2017-12-16T17:21:33.351Z,79.90
2017-12-16T17:24:01.478Z,80.10
2017-12-16T17:26:29.763Z,80.10
2017-12-16T17:28:57.911Z,80.50
2017-12-16T17:31:26.078Z,80.30
2017-12-16T17:33:54.208Z,79.80
2017-12-16T17:36:22.442Z,79.60
2017-12-16T17:38:50.679Z,79.80
2017-12-16T17:41:18.818Z,80.80
2017-12-16T17:43:46.951Z,80.60
2017-12-16T17:46:15.112Z,80.60
2017-12-16T17:48:43.220Z,80.90
2017-12-16T17:51:12.130Z,80.10
2017-12-16T17:53:40.291Z,80.20
2017-12-16T17:56:08.500Z,80.10
2017-12-16T17:58:36.729Z,80.40
2017-12-16T18:01:05.666Z,80.60
2017-12-16T18:03:33.808Z,80.60
2017-12-16T18:06:03.117Z,80.90
2017-12-16T18:08:31.265Z,80.90
2017-12-16T18:11:00.218Z,80.10
2017-12-16T18:13:28.337Z,80.10
2017-12-16T18:15:57.251Z,79.60
2017-12-16T18:18:25.397Z,79.70
2017-12-16T18:20:54.306Z,79.50
2017-12-16T18:23:22.474Z,79.50
2017-12-16T18:25:51.359Z,79.60
2017-12-16T18:28:20.287Z,79.10
2017-12-16T18:30:48.418Z,79.10
2017-12-16T18:33:17.325Z,78.80
2017-12-16T18:35:46.920Z,78.80
2017-12-16T18:38:15.857Z,78.50
2017-12-16T18:40:43.978Z,78.50
2017-12-16T18:43:12.898Z,78.40
2017-12-16T18:45:41.055Z,78.40
2017-12-16T18:48:09.963Z,78.80
2017-12-16T18:50:38.103Z,78.80
2017-12-16T18:53:07.019Z,79.00
2017-12-16T18:55:35.924Z,78.90
2017-12-16T18:58:04.136Z,78.90
2017-12-16T19:00:33.170Z,78.80
2017-12-16T19:03:02.074Z,78.80
2017-12-16T19:05:30.230Z,78.80
2017-12-16T19:07:59.134Z,79.30
2017-12-16T19:10:28.026Z,79.40
2017-12-16T19:12:56.202Z,79.50
2017-12-16T19:15:24.350Z,79.80
2017-12-16T19:17:52.489Z,80.40
2017-12-16T19:20:20.622Z,80.20
2017-12-16T19:22:49.523Z,80.30
2017-12-16T19:25:17.644Z,80.20
2017-12-16T19:27:45.811Z,80.10
2017-12-16T19:30:13.927Z,79.80
2017-12-16T19:32:42.862Z,79.10
2017-12-16T19:35:10.997Z,79.00
2017-12-16T19:37:40.482Z,79.30
2017-12-16T19:40:08.595Z,79.30
2017-12-16T19:42:36.743Z,79.60
2017-12-16T19:45:05.811Z,80.00
2017-12-16T19:47:34.044Z,79.90
2017-12-16T19:50:02.451Z,80.20
2017-12-16T19:52:30.605Z,81.00
2017-12-16T19:54:58.779Z,80.80
2017-12-16T19:57:26.922Z,80.60
2017-12-16T19:59:55.831Z,81.10
2017-12-16T20:02:23.949Z,81.10
2017-12-16T20:04:52.110Z,81.10
2017-12-16T20:07:20.235Z,80.30
2017-12-16T20:09:48.385Z,80.00
2017-12-16T20:12:17.276Z,79.50
2017-12-16T20:14:46.207Z,80.00
2017-12-16T20:17:14.347Z,80.00
2017-12-16T20:19:43.258Z,79.10
2017-12-16T20:22:11.399Z,79.10
2017-12-16T20:24:39.603Z,79.50
2017-12-16T20:27:07.746Z,79.20
2017-12-16T20:29:36.682Z,78.60
2017-12-16T20:32:04.808Z,78.70
2017-12-16T20:34:32.954Z,78.40
2017-12-16T20:37:01.092Z,78.60
2017-12-16T20:39:29.232Z,78.40
2017-12-16T20:41:57.374Z,78.80
2017-12-16T20:44:25.519Z,78.80
2017-12-16T20:46:54.163Z,79.50
2017-12-16T20:49:22.311Z,79.90
2017-12-16T20:51:50.432Z,79.50
2017-12-16T20:54:19.350Z,79.10
2017-12-16T20:56:47.471Z,79.20
2017-12-16T20:59:15.618Z,78.60
2017-12-16T21:01:43.756Z,79.00
2017-12-16T21:04:12.113Z,79.20
2017-12-16T21:06:41.010Z,79.20
2017-12-16T21:09:09.925Z,78.90
2017-12-16T21:11:38.057Z,78.90
2017-12-16T21:14:06.171Z,78.70
2017-12-16T21:16:34.318Z,78.00
2017-12-16T21:19:03.213Z,77.70
2017-12-16T21:21:32.135Z,78.30
2017-12-16T21:24:00.632Z,78.30
2017-12-16T21:26:28.806Z,78.20
2017-12-16T21:28:56.940Z,78.20
2017-12-16T21:31:25.868Z,79.30
2017-12-16T21:33:53.988Z,79.30
2017-12-16T21:36:23.198Z,79.00
2017-12-16T21:38:52.105Z,79.30
2017-12-16T21:41:20.290Z,79.30
2017-12-16T21:43:48.414Z,79.40
2017-12-16T21:46:17.166Z,80.10
2017-12-16T21:48:45.289Z,80.00
2017-12-16T21:51:14.203Z,79.00
2017-12-16T21:53:42.312Z,78.90
2017-12-16T21:56:10.459Z,79.30
2017-12-16T21:58:38.605Z,79.60
2017-12-16T22:01:07.515Z,78.90
2017-12-16T22:03:35.744Z,78.90
2017-12-16T22:06:04.254Z,79.10
2017-12-16T22:08:33.148Z,78.80
2017-12-16T22:11:02.062Z,78.40
2017-12-16T22:13:30.185Z,78.40
2017-12-16T22:15:58.332Z,77.90
2017-12-16T22:18:26.464Z,78.00
2017-12-16T22:20:55.391Z,77.80
2017-12-16T22:23:23.530Z,77.80
2017-12-16T22:25:51.685Z,78.20
2017-12-16T22:28:19.840Z,78.10
2017-12-16T22:30:48.006Z,77.10
2017-12-16T22:33:16.134Z,77.40
2017-12-16T22:35:44.252Z,77.50
2017-12-16T22:38:12.407Z,76.70
2017-12-16T22:40:40.582Z,76.70
2017-12-16T22:43:09.967Z,77.00
2017-12-16T22:45:38.101Z,77.00
2017-12-16T22:48:06.248Z,77.10
2017-12-16T22:50:34.374Z,77.10
2017-12-16T22:53:02.545Z,77.00
2017-12-16T22:55:30.783Z,77.40
2017-12-16T22:57:58.930Z,76.40
2017-12-16T23:00:27.082Z,76.90
2017-12-16T23:02:55.233Z,76.70
2017-12-16T23:05:24.141Z,76.00
2017-12-16T23:07:52.314Z,76.00
2017-12-16T23:10:20.451Z,76.20
2017-12-16T23:12:48.611Z,76.50
2017-12-16T23:15:16.730Z,76.90
2017-12-16T23:17:44.895Z,76.60
2017-12-16T23:20:13.723Z,77.10
2017-12-16T23:22:41.863Z,77.00
2017-12-16T23:25:10.771Z,77.20
2017-12-16T23:27:38.908Z,77.20
2017-12-16T23:30:07.023Z,76.70
2017-12-16T23:32:35.167Z,76.50
2017-12-16T23:35:04.048Z,76.50
2017-12-16T23:37:32.962Z,76.20
2017-12-16T23:40:01.095Z,76.20
2017-12-16T23:42:29.234Z,76.20
2017-12-16T23:44:57.351Z,76.30
2017-12-16T23:47:25.506Z,76.50
2017-12-16T23:49:53.635Z,77.10
2017-12-16T23:52:21.786Z,77.10
2017-12-16T23:54:50.682Z,77.50
2017-12-16T23:57:19.574Z,77.50
2017-12-16T23:59:48.503Z,77.40
